sensor_id;sensor_type;location;lat;lon;timestamp;P1;durP1;ratioP1;P2;durP2;ratioP2
15681;SDS011;7941;50.966;6.978;2022-11-03T00:00:30;13.97;;;6.47;;
15681;SDS011;7941;50.966;6.978;2022-11-03T00:02:56;12.83;;;6.27;;
15681;SDS011;7941;50.966;6.978;2022-11-03T00:05:23;13.57;;;6.90;;
15681;SDS011;7941;50.966;6.978;2022-11-03T00:08:07;14.77;;;6.27;;
15681;SDS011;7941;50.966;6.978;2022-11-03T00:10:34;12.87;;;6.80;;
15681;SDS011;7941;50.966;6.978;2022-11-03T00:13:00;10.33;;;5.67;;
15681;SDS011;7941;50.966;6.978;2022-11-03T00:15:26;10.33;;;5.17;;
15681;SDS011;7941;50.966;6.978;2022-11-03T00:17:52;14.07;;;5.30;;
15681;SDS011;7941;50.966;6.978;2022-11-03T00:20:18;11.30;;;5.07;;
15681;SDS011;7941;50.966;6.978;2022-11-03T00:22:44;14.23;;;5.33;;
15681;SDS011;7941;50.966;6.978;2022-11-03T00:25:10;12.53;;;5.73;;
15681;SDS011;7941;50.966;6.978;2022-11-03T00:27:36;14.50;;;5.40;;
15681;SDS011;7941;50.966;6.978;2022-11-03T00:30:03;19.33;;;7.13;;
15681;SDS011;7941;50.966;6.978;2022-11-03T00:32:29;12.70;;;5.87;;
15681;SDS011;7941;50.966;6.978;2022-11-03T00:34:55;13.33;;;5.63;;
15681;SDS011;7941;50.966;6.978;2022-11-03T00:37:21;12.83;;;6.00;;
15681;SDS011;7941;50.966;6.978;2022-11-03T00:39:47;11.50;;;5.47;;
15681;SDS011;7941;50.966;6.978;2022-11-03T00:42:13;14.53;;;5.43;;
15681;SDS011;7941;50.966;6.978;2022-11-03T00:44:39;11.93;;;5.40;;
15681;SDS011;7941;50.966;6.978;2022-11-03T00:47:05;13.17;;;5.20;;
15681;SDS011;7941;50.966;6.978;2022-11-03T00:49:32;12.47;;;5.50;;
15681;SDS011;7941;50.966;6.978;2022-11-03T00:51:58;10.70;;;5.30;;
15681;SDS011;7941;50.966;6.978;2022-11-03T00:54:24;16.40;;;5.50;;
15681;SDS011;7941;50.966;6.978;2022-11-03T00:56:50;14.20;;;5.63;;
15681;SDS011;7941;50.966;6.978;2022-11-03T00:59:16;14.27;;;5.47;;
15681;SDS011;7941;50.966;6.978;2022-11-03T01:01:43;11.77;;;5.63;;
15681;SDS011;7941;50.966;6.978;2022-11-03T01:04:09;13.57;;;5.90;;
15681;SDS011;7941;50.966;6.978;2022-11-03T01:06:54;13.33;;;6.03;;
15681;SDS011;7941;50.966;6.978;2022-11-03T01:12:10;14.47;;;6.27;;
15681;SDS011;7941;50.966;6.978;2022-11-03T01:17:11;15.73;;;7.33;;
15681;SDS011;7941;50.966;6.978;2022-11-03T01:19:37;10.90;;;6.23;;
15681;SDS011;7941;50.966;6.978;2022-11-03T01:22:04;15.17;;;6.43;;
15681;SDS011;7941;50.966;6.978;2022-11-03T01:24:30;12.43;;;6.53;;
15681;SDS011;7941;50.966;6.978;2022-11-03T01:26:56;15.70;;;7.13;;
15681;SDS011;7941;50.966;6.978;2022-11-03T01:29:22;13.90;;;6.07;;
15681;SDS011;7941;50.966;6.978;2022-11-03T01:31:49;14.63;;;6.43;;
15681;SDS011;7941;50.966;6.978;2022-11-03T01:34:16;13.17;;;6.10;;
15681;SDS011;7941;50.966;6.978;2022-11-03T01:36:42;11.03;;;5.10;;
15681;SDS011;7941;50.966;6.978;2022-11-03T01:39:12;12.30;;;6.00;;
15681;SDS011;7941;50.966;6.978;2022-11-03T01:41:39;15.53;;;6.10;;
15681;SDS011;7941;50.966;6.978;2022-11-03T01:46:31;13.87;;;6.30;;
15681;SDS011;7941;50.966;6.978;2022-11-03T01:49:00;12.80;;;5.90;;
15681;SDS011;7941;50.966;6.978;2022-11-03T01:51:29;12.37;;;5.70;;
15681;SDS011;7941;50.966;6.978;2022-11-03T01:53:55;15.50;;;6.20;;
15681;SDS011;7941;50.966;6.978;2022-11-03T01:56:23;12.80;;;6.30;;
15681;SDS011;7941;50.966;6.978;2022-11-03T01:58:50;14.43;;;5.73;;
15681;SDS011;7941;50.966;6.978;2022-11-03T02:01:17;12.53;;;5.03;;
15681;SDS011;7941;50.966;6.978;2022-11-03T02:03:47;16.07;;;6.53;;
15681;SDS011;7941;50.966;6.978;2022-11-03T02:06:15;13.03;;;6.00;;
15681;SDS011;7941;50.966;6.978;2022-11-03T02:08:52;11.17;;;6.00;;
15681;SDS011;7941;50.966;6.978;2022-11-03T02:11:19;15.07;;;6.10;;
15681;SDS011;7941;50.966;6.978;2022-11-03T02:14:04;10.07;;;5.77;;
15681;SDS011;7941;50.966;6.978;2022-11-03T02:16:30;11.60;;;5.77;;
15681;SDS011;7941;50.966;6.978;2022-11-03T02:18:57;13.13;;;6.20;;
15681;SDS011;7941;50.966;6.978;2022-11-03T02:23:57;19.33;;;6.43;;
15681;SDS011;7941;50.966;6.978;2022-11-03T02:26:26;10.87;;;6.07;;
15681;SDS011;7941;50.966;6.978;2022-11-03T02:28:52;13.37;;;5.93;;
15681;SDS011;7941;50.966;6.978;2022-11-03T02:31:22;15.37;;;7.03;;
15681;SDS011;7941;50.966;6.978;2022-11-03T02:38:57;13.53;;;6.23;;
15681;SDS011;7941;50.966;6.978;2022-11-03T02:41:25;18.07;;;5.93;;
15681;SDS011;7941;50.966;6.978;2022-11-03T02:43:52;12.70;;;5.60;;
15681;SDS011;7941;50.966;6.978;2022-11-03T02:46:20;12.10;;;5.90;;
15681;SDS011;7941;50.966;6.978;2022-11-03T02:48:47;16.93;;;6.50;;
15681;SDS011;7941;50.966;6.978;2022-11-03T02:51:13;16.77;;;5.83;;
15681;SDS011;7941;50.966;6.978;2022-11-03T02:53:44;13.30;;;5.40;;
15681;SDS011;7941;50.966;6.978;2022-11-03T02:56:18;12.33;;;5.57;;
15681;SDS011;7941;50.966;6.978;2022-11-03T02:58:56;12.47;;;5.43;;
15681;SDS011;7941;50.966;6.978;2022-11-03T03:03:54;13.80;;;4.73;;
15681;SDS011;7941;50.966;6.978;2022-11-03T03:08:52;11.57;;;4.40;;
15681;SDS011;7941;50.966;6.978;2022-11-03T03:11:19;10.10;;;4.47;;
15681;SDS011;7941;50.966;6.978;2022-11-03T03:14:05;18.90;;;5.00;;
15681;SDS011;7941;50.966;6.978;2022-11-03T03:16:34;14.80;;;4.50;;
15681;SDS011;7941;50.966;6.978;2022-11-03T03:19:10;18.10;;;4.77;;
15681;SDS011;7941;50.966;6.978;2022-11-03T03:21:41;9.30;;;4.13;;
15681;SDS011;7941;50.966;6.978;2022-11-03T03:24:11;8.33;;;3.93;;
15681;SDS011;7941;50.966;6.978;2022-11-03T03:26:40;13.27;;;4.27;;
15681;SDS011;7941;50.966;6.978;2022-11-03T03:29:13;13.57;;;4.37;;
15681;SDS011;7941;50.966;6.978;2022-11-03T03:31:40;12.53;;;4.47;;
15681;SDS011;7941;50.966;6.978;2022-11-03T03:34:07;9.90;;;4.70;;
15681;SDS011;7941;50.966;6.978;2022-11-03T03:36:34;8.93;;;4.00;;
15681;SDS011;7941;50.966;6.978;2022-11-03T03:39:03;13.93;;;4.63;;
15681;SDS011;7941;50.966;6.978;2022-11-03T03:41:31;11.23;;;4.13;;
15681;SDS011;7941;50.966;6.978;2022-11-03T03:43:59;12.03;;;4.43;;
15681;SDS011;7941;50.966;6.978;2022-11-03T03:46:31;11.10;;;4.33;;
15681;SDS011;7941;50.966;6.978;2022-11-03T03:48:59;11.77;;;4.40;;
15681;SDS011;7941;50.966;6.978;2022-11-03T03:51:25;11.80;;;4.10;;
15681;SDS011;7941;50.966;6.978;2022-11-03T03:53:53;11.60;;;3.93;;
15681;SDS011;7941;50.966;6.978;2022-11-03T03:56:24;15.77;;;5.13;;
15681;SDS011;7941;50.966;6.978;2022-11-03T03:58:51;14.20;;;4.60;;
15681;SDS011;7941;50.966;6.978;2022-11-03T04:01:17;13.00;;;4.03;;
15681;SDS011;7941;50.966;6.978;2022-11-03T04:03:43;10.90;;;3.70;;
15681;SDS011;7941;50.966;6.978;2022-11-03T04:06:10;8.03;;;3.73;;
15681;SDS011;7941;50.966;6.978;2022-11-03T04:08:36;12.53;;;3.93;;
15681;SDS011;7941;50.966;6.978;2022-11-03T04:11:02;13.40;;;4.57;;
15681;SDS011;7941;50.966;6.978;2022-11-03T04:13:47;11.67;;;4.27;;
15681;SDS011;7941;50.966;6.978;2022-11-03T04:16:31;10.73;;;4.03;;
15681;SDS011;7941;50.966;6.978;2022-11-03T04:19:16;10.77;;;4.33;;
15681;SDS011;7941;50.966;6.978;2022-11-03T04:22:00;13.30;;;3.83;;
15681;SDS011;7941;50.966;6.978;2022-11-03T04:24:45;12.63;;;4.17;;
15681;SDS011;7941;50.966;6.978;2022-11-03T04:29:41;12.50;;;3.87;;
15681;SDS011;7941;50.966;6.978;2022-11-03T04:32:14;8.23;;;3.70;;
15681;SDS011;7941;50.966;6.978;2022-11-03T04:34:40;8.97;;;3.93;;
15681;SDS011;7941;50.966;6.978;2022-11-03T04:37:13;12.70;;;4.20;;
15681;SDS011;7941;50.966;6.978;2022-11-03T04:39:39;9.63;;;3.90;;
15681;SDS011;7941;50.966;6.978;2022-11-03T04:42:14;11.87;;;4.13;;
15681;SDS011;7941;50.966;6.978;2022-11-03T04:44:40;11.37;;;3.43;;
15681;SDS011;7941;50.966;6.978;2022-11-03T04:47:08;12.03;;;3.97;;
15681;SDS011;7941;50.966;6.978;2022-11-03T04:49:35;13.10;;;4.17;;
15681;SDS011;7941;50.966;6.978;2022-11-03T04:52:01;10.77;;;4.00;;
15681;SDS011;7941;50.966;6.978;2022-11-03T04:54:27;11.20;;;4.47;;
15681;SDS011;7941;50.966;6.978;2022-11-03T04:56:53;9.13;;;4.23;;
15681;SDS011;7941;50.966;6.978;2022-11-03T04:59:20;12.47;;;4.83;;
15681;SDS011;7941;50.966;6.978;2022-11-03T05:01:46;14.13;;;4.80;;
15681;SDS011;7941;50.966;6.978;2022-11-03T05:04:16;9.40;;;4.07;;
15681;SDS011;7941;50.966;6.978;2022-11-03T05:06:48;11.63;;;4.40;;
15681;SDS011;7941;50.966;6.978;2022-11-03T05:09:17;13.60;;;4.90;;
15681;SDS011;7941;50.966;6.978;2022-11-03T05:11:44;9.83;;;3.77;;
15681;SDS011;7941;50.966;6.978;2022-11-03T05:14:18;8.80;;;4.13;;
15681;SDS011;7941;50.966;6.978;2022-11-03T05:16:45;13.03;;;4.07;;
15681;SDS011;7941;50.966;6.978;2022-11-03T05:19:33;9.60;;;3.47;;
15681;SDS011;7941;50.966;6.978;2022-11-03T05:21:59;12.20;;;3.57;;
15681;SDS011;7941;50.966;6.978;2022-11-03T05:24:25;9.97;;;3.63;;
15681;SDS011;7941;50.966;6.978;2022-11-03T05:26:52;13.87;;;4.07;;
15681;SDS011;7941;50.966;6.978;2022-11-03T05:29:20;8.07;;;3.80;;
15681;SDS011;7941;50.966;6.978;2022-11-03T05:31:47;14.13;;;4.37;;
15681;SDS011;7941;50.966;6.978;2022-11-03T05:36:49;11.63;;;4.03;;
15681;SDS011;7941;50.966;6.978;2022-11-03T05:41:47;11.00;;;4.33;;
15681;SDS011;7941;50.966;6.978;2022-11-03T05:47:01;13.97;;;4.07;;
15681;SDS011;7941;50.966;6.978;2022-11-03T05:49:27;11.97;;;4.40;;
15681;SDS011;7941;50.966;6.978;2022-11-03T05:51:54;12.43;;;4.50;;
15681;SDS011;7941;50.966;6.978;2022-11-03T05:54:24;13.90;;;4.87;;
15681;SDS011;7941;50.966;6.978;2022-11-03T05:56:51;8.47;;;3.83;;
15681;SDS011;7941;50.966;6.978;2022-11-03T05:59:22;13.63;;;4.70;;
15681;SDS011;7941;50.966;6.978;2022-11-03T06:01:49;11.77;;;4.80;;
15681;SDS011;7941;50.966;6.978;2022-11-03T06:06:51;9.53;;;4.10;;
15681;SDS011;7941;50.966;6.978;2022-11-03T06:09:19;8.83;;;3.93;;
15681;SDS011;7941;50.966;6.978;2022-11-03T06:11:46;11.67;;;4.10;;
15681;SDS011;7941;50.966;6.978;2022-11-03T06:14:20;10.73;;;4.33;;
15681;SDS011;7941;50.966;6.978;2022-11-03T06:16:47;13.07;;;4.17;;
15681;SDS011;7941;50.966;6.978;2022-11-03T06:19:57;10.10;;;3.70;;
15681;SDS011;7941;50.966;6.978;2022-11-03T06:22:46;12.17;;;3.93;;
15681;SDS011;7941;50.966;6.978;2022-11-03T06:25:13;9.53;;;3.80;;
15681;SDS011;7941;50.966;6.978;2022-11-03T06:27:42;11.33;;;4.00;;
15681;SDS011;7941;50.966;6.978;2022-11-03T06:32:53;9.57;;;3.93;;
15681;SDS011;7941;50.966;6.978;2022-11-03T06:35:23;10.00;;;3.63;;
15681;SDS011;7941;50.966;6.978;2022-11-03T06:37:49;9.70;;;4.40;;
15681;SDS011;7941;50.966;6.978;2022-11-03T06:40:28;11.17;;;4.47;;
15681;SDS011;7941;50.966;6.978;2022-11-03T06:42:55;14.67;;;6.87;;
15681;SDS011;7941;50.966;6.978;2022-11-03T06:45:23;17.10;;;6.90;;
15681;SDS011;7941;50.966;6.978;2022-11-03T06:47:51;12.97;;;7.43;;
15681;SDS011;7941;50.966;6.978;2022-11-03T06:50:27;14.20;;;7.37;;
15681;SDS011;7941;50.966;6.978;2022-11-03T06:52:54;13.90;;;7.50;;
15681;SDS011;7941;50.966;6.978;2022-11-03T06:55:23;19.27;;;12.87;;
15681;SDS011;7941;50.966;6.978;2022-11-03T06:57:54;14.50;;;8.23;;
15681;SDS011;7941;50.966;6.978;2022-11-03T07:00:23;17.33;;;8.37;;
15681;SDS011;7941;50.966;6.978;2022-11-03T07:05:32;12.90;;;9.40;;
15681;SDS011;7941;50.966;6.978;2022-11-03T07:07:59;17.47;;;9.03;;
15681;SDS011;7941;50.966;6.978;2022-11-03T07:10:27;15.00;;;9.40;;
15681;SDS011;7941;50.966;6.978;2022-11-03T07:12:53;17.73;;;8.53;;
15681;SDS011;7941;50.966;6.978;2022-11-03T07:15:25;15.13;;;9.63;;
15681;SDS011;7941;50.966;6.978;2022-11-03T07:17:52;17.73;;;11.17;;
15681;SDS011;7941;50.966;6.978;2022-11-03T07:20:18;19.13;;;10.80;;
15681;SDS011;7941;50.966;6.978;2022-11-03T07:22:44;20.87;;;11.53;;
15681;SDS011;7941;50.966;6.978;2022-11-03T07:25:15;18.10;;;11.63;;
15681;SDS011;7941;50.966;6.978;2022-11-03T07:27:42;15.00;;;9.50;;
15681;SDS011;7941;50.966;6.978;2022-11-03T07:30:13;16.80;;;8.57;;
15681;SDS011;7941;50.966;6.978;2022-11-03T07:32:40;12.83;;;8.00;;
15681;SDS011;7941;50.966;6.978;2022-11-03T07:37:36;13.47;;;6.97;;
15681;SDS011;7941;50.966;6.978;2022-11-03T07:40:02;11.77;;;5.60;;
15681;SDS011;7941;50.966;6.978;2022-11-03T07:42:30;10.40;;;5.00;;
15681;SDS011;7941;50.966;6.978;2022-11-03T07:44:57;15.03;;;5.40;;
15681;SDS011;7941;50.966;6.978;2022-11-03T07:47:23;11.77;;;4.97;;
15681;SDS011;7941;50.966;6.978;2022-11-03T07:49:50;9.43;;;4.60;;
15681;SDS011;7941;50.966;6.978;2022-11-03T07:52:20;11.10;;;4.57;;
15681;SDS011;7941;50.966;6.978;2022-11-03T07:54:47;8.43;;;4.20;;
15681;SDS011;7941;50.966;6.978;2022-11-03T07:57:23;12.27;;;5.03;;
15681;SDS011;7941;50.966;6.978;2022-11-03T07:59:51;10.53;;;4.10;;
15681;SDS011;7941;50.966;6.978;2022-11-03T08:04:48;13.47;;;4.70;;
15681;SDS011;7941;50.966;6.978;2022-11-03T08:07:14;13.03;;;4.47;;
15681;SDS011;7941;50.966;6.978;2022-11-03T08:09:40;14.70;;;5.17;;
15681;SDS011;7941;50.966;6.978;2022-11-03T08:12:06;10.43;;;4.10;;
15681;SDS011;7941;50.966;6.978;2022-11-03T08:14:32;12.20;;;4.30;;
15681;SDS011;7941;50.966;6.978;2022-11-03T08:16:59;9.50;;;4.27;;
15681;SDS011;7941;50.966;6.978;2022-11-03T08:19:25;13.87;;;4.40;;
15681;SDS011;7941;50.966;6.978;2022-11-03T08:21:51;9.33;;;3.83;;
15681;SDS011;7941;50.966;6.978;2022-11-03T08:24:17;12.33;;;4.07;;
15681;SDS011;7941;50.966;6.978;2022-11-03T08:26:43;12.30;;;3.87;;
15681;SDS011;7941;50.966;6.978;2022-11-03T08:29:10;13.10;;;3.90;;
15681;SDS011;7941;50.966;6.978;2022-11-03T08:31:36;9.90;;;3.47;;
15681;SDS011;7941;50.966;6.978;2022-11-03T08:34:02;10.90;;;4.87;;
15681;SDS011;7941;50.966;6.978;2022-11-03T08:36:28;12.57;;;4.07;;
15681;SDS011;7941;50.966;6.978;2022-11-03T08:38:55;7.70;;;3.57;;
15681;SDS011;7941;50.966;6.978;2022-11-03T08:41:21;8.03;;;3.77;;
15681;SDS011;7941;50.966;6.978;2022-11-03T08:43:47;12.10;;;4.80;;
15681;SDS011;7941;50.966;6.978;2022-11-03T08:46:13;9.63;;;3.83;;
15681;SDS011;7941;50.966;6.978;2022-11-03T08:48:39;10.40;;;3.90;;
15681;SDS011;7941;50.966;6.978;2022-11-03T08:51:06;13.00;;;3.87;;
15681;SDS011;7941;50.966;6.978;2022-11-03T08:53:34;11.13;;;4.40;;
15681;SDS011;7941;50.966;6.978;2022-11-03T08:56:00;7.90;;;3.83;;
15681;SDS011;7941;50.966;6.978;2022-11-03T08:58:26;10.47;;;3.67;;
15681;SDS011;7941;50.966;6.978;2022-11-03T09:00:52;9.83;;;3.77;;
15681;SDS011;7941;50.966;6.978;2022-11-03T09:03:18;11.70;;;4.13;;
15681;SDS011;7941;50.966;6.978;2022-11-03T09:05:44;14.70;;;5.37;;
15681;SDS011;7941;50.966;6.978;2022-11-03T09:08:11;11.97;;;5.00;;
15681;SDS011;7941;50.966;6.978;2022-11-03T09:10:37;10.70;;;3.50;;
15681;SDS011;7941;50.966;6.978;2022-11-03T09:13:03;7.80;;;3.03;;
15681;SDS011;7941;50.966;6.978;2022-11-03T09:15:29;7.87;;;3.77;;
15681;SDS011;7941;50.966;6.978;2022-11-03T09:17:56;10.30;;;3.43;;
15681;SDS011;7941;50.966;6.978;2022-11-03T09:20:22;9.87;;;5.10;;
15681;SDS011;7941;50.966;6.978;2022-11-03T09:22:48;15.40;;;6.20;;
15681;SDS011;7941;50.966;6.978;2022-11-03T09:25:15;14.37;;;3.80;;
15681;SDS011;7941;50.966;6.978;2022-11-03T09:27:41;10.57;;;3.90;;
15681;SDS011;7941;50.966;6.978;2022-11-03T09:30:07;8.70;;;3.70;;
15681;SDS011;7941;50.966;6.978;2022-11-03T09:32:34;6.17;;;2.83;;
15681;SDS011;7941;50.966;6.978;2022-11-03T09:35:00;7.40;;;3.40;;
15681;SDS011;7941;50.966;6.978;2022-11-03T09:37:26;7.07;;;3.63;;
15681;SDS011;7941;50.966;6.978;2022-11-03T09:39:52;8.30;;;4.13;;
15681;SDS011;7941;50.966;6.978;2022-11-03T09:42:18;8.77;;;3.87;;
15681;SDS011;7941;50.966;6.978;2022-11-03T09:44:45;6.67;;;3.47;;
15681;SDS011;7941;50.966;6.978;2022-11-03T09:47:31;11.13;;;3.80;;
15681;SDS011;7941;50.966;6.978;2022-11-03T09:49:58;8.80;;;3.67;;
15681;SDS011;7941;50.966;6.978;2022-11-03T09:52:24;9.27;;;4.60;;
15681;SDS011;7941;50.966;6.978;2022-11-03T09:54:51;10.50;;;3.67;;
15681;SDS011;7941;50.966;6.978;2022-11-03T09:57:19;10.77;;;4.07;;
15681;SDS011;7941;50.966;6.978;2022-11-03T09:59:46;8.50;;;4.13;;
15681;SDS011;7941;50.966;6.978;2022-11-03T10:02:15;7.13;;;2.93;;
15681;SDS011;7941;50.966;6.978;2022-11-03T10:04:45;9.97;;;4.90;;
15681;SDS011;7941;50.966;6.978;2022-11-03T10:07:11;11.60;;;4.00;;
15681;SDS011;7941;50.966;6.978;2022-11-03T10:09:38;13.20;;;4.20;;
15681;SDS011;7941;50.966;6.978;2022-11-03T10:12:07;9.93;;;5.30;;
15681;SDS011;7941;50.966;6.978;2022-11-03T10:14:34;8.83;;;6.23;;
15681;SDS011;7941;50.966;6.978;2022-11-03T10:17:00;10.43;;;6.80;;
15681;SDS011;7941;50.966;6.978;2022-11-03T10:19:26;11.17;;;7.27;;
15681;SDS011;7941;50.966;6.978;2022-11-03T10:21:53;14.37;;;7.67;;
15681;SDS011;7941;50.966;6.978;2022-11-03T10:24:19;10.77;;;7.40;;
15681;SDS011;7941;50.966;6.978;2022-11-03T10:26:50;10.40;;;6.30;;
15681;SDS011;7941;50.966;6.978;2022-11-03T10:29:18;9.30;;;5.60;;
15681;SDS011;7941;50.966;6.978;2022-11-03T10:31:44;9.23;;;6.03;;
15681;SDS011;7941;50.966;6.978;2022-11-03T10:39:47;14.17;;;6.73;;
15681;SDS011;7941;50.966;6.978;2022-11-03T10:42:23;7.33;;;4.20;;
15681;SDS011;7941;50.966;6.978;2022-11-03T10:44:54;7.53;;;3.73;;
15681;SDS011;7941;50.966;6.978;2022-11-03T10:47:33;7.13;;;4.77;;
15681;SDS011;7941;50.966;6.978;2022-11-03T10:50:00;8.80;;;5.47;;
15681;SDS011;7941;50.966;6.978;2022-11-03T10:52:30;11.90;;;7.07;;
15681;SDS011;7941;50.966;6.978;2022-11-03T10:54:57;8.97;;;5.27;;
15681;SDS011;7941;50.966;6.978;2022-11-03T10:57:24;7.37;;;4.63;;
15681;SDS011;7941;50.966;6.978;2022-11-03T10:59:51;6.80;;;4.47;;
15681;SDS011;7941;50.966;6.978;2022-11-03T11:02:19;8.43;;;3.10;;
15681;SDS011;7941;50.966;6.978;2022-11-03T11:04:46;7.53;;;3.27;;
15681;SDS011;7941;50.966;6.978;2022-11-03T11:07:46;10.03;;;3.33;;
15681;SDS011;7941;50.966;6.978;2022-11-03T11:10:06;6.67;;;2.87;;
15681;SDS011;7941;50.966;6.978;2022-11-03T11:12:33;7.80;;;3.30;;
15681;SDS011;7941;50.966;6.978;2022-11-03T11:15:00;6.67;;;2.90;;
15681;SDS011;7941;50.966;6.978;2022-11-03T11:17:49;7.97;;;2.90;;
15681;SDS011;7941;50.966;6.978;2022-11-03T11:22:48;6.67;;;2.80;;
15681;SDS011;7941;50.966;6.978;2022-11-03T11:25:18;6.40;;;3.00;;
15681;SDS011;7941;50.966;6.978;2022-11-03T11:27:45;7.23;;;2.90;;
15681;SDS011;7941;50.966;6.978;2022-11-03T11:35:10;11.33;;;4.20;;
15681;SDS011;7941;50.966;6.978;2022-11-03T11:37:41;8.50;;;4.03;;
15681;SDS011;7941;50.966;6.978;2022-11-03T11:40:24;7.67;;;4.13;;
15681;SDS011;7941;50.966;6.978;2022-11-03T11:48:15;9.30;;;4.63;;
15681;SDS011;7941;50.966;6.978;2022-11-03T11:50:42;9.30;;;4.57;;
15681;SDS011;7941;50.966;6.978;2022-11-03T11:53:09;8.00;;;4.47;;
15681;SDS011;7941;50.966;6.978;2022-11-03T11:55:46;8.67;;;5.10;;
15681;SDS011;7941;50.966;6.978;2022-11-03T11:58:21;6.83;;;4.67;;
15681;SDS011;7941;50.966;6.978;2022-11-03T12:00:52;12.10;;;4.30;;
15681;SDS011;7941;50.966;6.978;2022-11-03T12:03:22;7.23;;;3.80;;
15681;SDS011;7941;50.966;6.978;2022-11-03T12:05:48;7.63;;;4.47;;
15681;SDS011;7941;50.966;6.978;2022-11-03T12:08:18;10.83;;;4.43;;
15681;SDS011;7941;50.966;6.978;2022-11-03T12:10:52;11.13;;;4.47;;
15681;SDS011;7941;50.966;6.978;2022-11-03T12:13:41;6.33;;;4.33;;
15681;SDS011;7941;50.966;6.978;2022-11-03T12:16:06;8.83;;;5.10;;
15681;SDS011;7941;50.966;6.978;2022-11-03T12:21:03;5.40;;;4.03;;
15681;SDS011;7941;50.966;6.978;2022-11-03T12:23:46;6.20;;;3.20;;
15681;SDS011;7941;50.966;6.978;2022-11-03T12:26:58;10.27;;;3.37;;
15681;SDS011;7941;50.966;6.978;2022-11-03T12:28:59;3.80;;;2.90;;
15681;SDS011;7941;50.966;6.978;2022-11-03T12:31:25;8.37;;;3.70;;
15681;SDS011;7941;50.966;6.978;2022-11-03T12:33:51;6.43;;;2.97;;
15681;SDS011;7941;50.966;6.978;2022-11-03T12:36:17;7.53;;;3.27;;
15681;SDS011;7941;50.966;6.978;2022-11-03T12:38:44;8.57;;;3.20;;
15681;SDS011;7941;50.966;6.978;2022-11-03T12:41:10;8.23;;;3.30;;
15681;SDS011;7941;50.966;6.978;2022-11-03T12:43:46;10.50;;;3.90;;
15681;SDS011;7941;50.966;6.978;2022-11-03T12:46:12;11.03;;;3.97;;
15681;SDS011;7941;50.966;6.978;2022-11-03T12:48:38;11.30;;;4.73;;
15681;SDS011;7941;50.966;6.978;2022-11-03T12:51:18;9.53;;;3.33;;
15681;SDS011;7941;50.966;6.978;2022-11-03T12:53:44;6.63;;;3.20;;
15681;SDS011;7941;50.966;6.978;2022-11-03T12:56:12;8.00;;;4.30;;
15681;SDS011;7941;50.966;6.978;2022-11-03T12:58:38;6.37;;;4.57;;
15681;SDS011;7941;50.966;6.978;2022-11-03T13:01:05;10.37;;;4.80;;
15681;SDS011;7941;50.966;6.978;2022-11-03T13:03:31;8.63;;;5.67;;
15681;SDS011;7941;50.966;6.978;2022-11-03T13:05:58;6.47;;;2.97;;
15681;SDS011;7941;50.966;6.978;2022-11-03T13:08:25;5.97;;;2.90;;
15681;SDS011;7941;50.966;6.978;2022-11-03T13:10:51;6.30;;;3.17;;
15681;SDS011;7941;50.966;6.978;2022-11-03T13:13:18;6.23;;;3.10;;
15681;SDS011;7941;50.966;6.978;2022-11-03T13:15:44;7.90;;;3.63;;
15681;SDS011;7941;50.966;6.978;2022-11-03T13:18:10;11.83;;;3.63;;
15681;SDS011;7941;50.966;6.978;2022-11-03T13:20:37;7.10;;;3.47;;
15681;SDS011;7941;50.966;6.978;2022-11-03T13:23:03;5.23;;;2.77;;
15681;SDS011;7941;50.966;6.978;2022-11-03T13:25:30;7.97;;;3.13;;
15681;SDS011;7941;50.966;6.978;2022-11-03T13:27:56;4.47;;;2.70;;
15681;SDS011;7941;50.966;6.978;2022-11-03T13:30:23;6.83;;;3.00;;
15681;SDS011;7941;50.966;6.978;2022-11-03T13:32:49;6.37;;;3.10;;
15681;SDS011;7941;50.966;6.978;2022-11-03T13:35:15;6.47;;;3.10;;
15681;SDS011;7941;50.966;6.978;2022-11-03T13:37:42;8.27;;;4.17;;
15681;SDS011;7941;50.966;6.978;2022-11-03T13:40:09;8.57;;;4.23;;
15681;SDS011;7941;50.966;6.978;2022-11-03T13:42:36;8.80;;;3.70;;
15681;SDS011;7941;50.966;6.978;2022-11-03T13:45:03;8.90;;;3.20;;
15681;SDS011;7941;50.966;6.978;2022-11-03T13:47:29;6.73;;;3.03;;
15681;SDS011;7941;50.966;6.978;2022-11-03T13:49:55;5.17;;;3.00;;
15681;SDS011;7941;50.966;6.978;2022-11-03T13:52:21;5.53;;;2.70;;
15681;SDS011;7941;50.966;6.978;2022-11-03T13:54:50;8.23;;;2.87;;
15681;SDS011;7941;50.966;6.978;2022-11-03T13:57:17;5.83;;;2.73;;
15681;SDS011;7941;50.966;6.978;2022-11-03T13:59:43;7.47;;;3.37;;
15681;SDS011;7941;50.966;6.978;2022-11-03T14:02:10;5.67;;;2.97;;
15681;SDS011;7941;50.966;6.978;2022-11-03T14:04:36;6.77;;;3.47;;
15681;SDS011;7941;50.966;6.978;2022-11-03T14:07:03;7.70;;;4.47;;
15681;SDS011;7941;50.966;6.978;2022-11-03T14:09:30;7.60;;;3.73;;
15681;SDS011;7941;50.966;6.978;2022-11-03T14:11:56;5.23;;;3.87;;
15681;SDS011;7941;50.966;6.978;2022-11-03T14:14:41;6.13;;;3.80;;
15681;SDS011;7941;50.966;6.978;2022-11-03T14:17:08;6.27;;;3.57;;
15681;SDS011;7941;50.966;6.978;2022-11-03T14:19:34;10.47;;;3.70;;
15681;SDS011;7941;50.966;6.978;2022-11-03T14:22:01;9.90;;;4.23;;
15681;SDS011;7941;50.966;6.978;2022-11-03T14:24:27;5.60;;;5.00;;
15681;SDS011;7941;50.966;6.978;2022-11-03T14:26:53;9.50;;;4.90;;
15681;SDS011;7941;50.966;6.978;2022-11-03T14:29:19;8.63;;;5.63;;
15681;SDS011;7941;50.966;6.978;2022-11-03T14:31:45;6.07;;;4.60;;
15681;SDS011;7941;50.966;6.978;2022-11-03T14:34:11;11.17;;;7.50;;
15681;SDS011;7941;50.966;6.978;2022-11-03T14:36:38;9.67;;;6.20;;
15681;SDS011;7941;50.966;6.978;2022-11-03T14:39:04;8.97;;;7.07;;
15681;SDS011;7941;50.966;6.978;2022-11-03T14:41:30;10.70;;;6.40;;
15681;SDS011;7941;50.966;6.978;2022-11-03T14:44:15;8.53;;;5.03;;
15681;SDS011;7941;50.966;6.978;2022-11-03T14:46:41;8.97;;;5.20;;
15681;SDS011;7941;50.966;6.978;2022-11-03T14:49:07;11.60;;;6.50;;
15681;SDS011;7941;50.966;6.978;2022-11-03T14:51:33;13.87;;;7.50;;
15681;SDS011;7941;50.966;6.978;2022-11-03T14:54:00;9.53;;;5.60;;
15681;SDS011;7941;50.966;6.978;2022-11-03T14:56:26;8.33;;;5.80;;
15681;SDS011;7941;50.966;6.978;2022-11-03T14:58:52;17.27;;;12.77;;
15681;SDS011;7941;50.966;6.978;2022-11-03T15:01:19;19.67;;;11.33;;
15681;SDS011;7941;50.966;6.978;2022-11-03T15:03:45;16.53;;;10.77;;
15681;SDS011;7941;50.966;6.978;2022-11-03T15:06:11;16.90;;;12.37;;
15681;SDS011;7941;50.966;6.978;2022-11-03T15:08:38;17.60;;;11.53;;
15681;SDS011;7941;50.966;6.978;2022-11-03T15:11:04;12.60;;;9.60;;
15681;SDS011;7941;50.966;6.978;2022-11-03T15:13:34;9.27;;;6.93;;
15681;SDS011;7941;50.966;6.978;2022-11-03T15:16:01;9.80;;;7.50;;
15681;SDS011;7941;50.966;6.978;2022-11-03T15:18:27;9.37;;;6.47;;
15681;SDS011;7941;50.966;6.978;2022-11-03T15:20:53;12.77;;;8.17;;
15681;SDS011;7941;50.966;6.978;2022-11-03T15:23:19;10.07;;;6.87;;
15681;SDS011;7941;50.966;6.978;2022-11-03T15:25:46;10.50;;;6.57;;
15681;SDS011;7941;50.966;6.978;2022-11-03T15:28:12;9.07;;;6.50;;
15681;SDS011;7941;50.966;6.978;2022-11-03T15:30:38;12.03;;;6.63;;
15681;SDS011;7941;50.966;6.978;2022-11-03T15:33:05;9.63;;;5.90;;
15681;SDS011;7941;50.966;6.978;2022-11-03T15:35:31;8.93;;;5.50;;
15681;SDS011;7941;50.966;6.978;2022-11-03T15:37:58;9.87;;;5.40;;
15681;SDS011;7941;50.966;6.978;2022-11-03T15:40:24;10.23;;;5.33;;
15681;SDS011;7941;50.966;6.978;2022-11-03T15:42:52;9.57;;;5.80;;
15681;SDS011;7941;50.966;6.978;2022-11-03T15:45:18;8.17;;;5.27;;
15681;SDS011;7941;50.966;6.978;2022-11-03T15:47:45;8.87;;;5.80;;
15681;SDS011;7941;50.966;6.978;2022-11-03T15:50:11;7.03;;;5.50;;
15681;SDS011;7941;50.966;6.978;2022-11-03T15:52:39;8.70;;;6.27;;
15681;SDS011;7941;50.966;6.978;2022-11-03T15:55:06;11.00;;;6.87;;
15681;SDS011;7941;50.966;6.978;2022-11-03T15:57:32;14.90;;;7.07;;
15681;SDS011;7941;50.966;6.978;2022-11-03T15:59:59;6.97;;;6.33;;
15681;SDS011;7941;50.966;6.978;2022-11-03T16:02:25;11.50;;;7.40;;
15681;SDS011;7941;50.966;6.978;2022-11-03T16:04:51;10.93;;;7.17;;